Flight Track Log - Related Links

Times and Time Zones

All times are in EDT time to prevent confusion due to time zone crossing. See the SKW5504 flight status page for this flight to view local times or setup timezone preferences in your user account.

Time Position Orientation Groundspeed Altitude Reporting Facility
EDT Latitude Longitude Course Direction KTS MPH feet Rate Location/Type
Mon 04:04:18 PM 37.6667 -122.3667 North 165 190 1,800  Level Northern Cal TRACON
Mon 04:05:50 PM 37.7328 -122.3586 North 191 220 4,100 1,647 Climbing Oakland Center
Mon 04:06:51 PM 37.7986 -122.3719 351° North 200 230 6,000 1,623 Climbing Oakland Center
Mon 04:07:00 PM 37.9092 -122.3753 345° North  Level FlightAware Approximate
Mon 04:07:52 PM 37.8589 -122.3803 354° North 213 245 7,400  Level Oakland Center
Mon 04:08:00 PM 37.9776 -122.3667 North  Level FlightAware Approximate
Mon 04:08:54 PM 37.9214 -122.3833 358° North 224 258 9,000  Level Oakland Center
Mon 04:09:00 PM 38.0497 -122.3667 North  Level FlightAware Approximate
Mon 04:09:55 PM 37.9839 -122.3828 360° North 227 261 10,500  Level Oakland Center
Mon 04:10:57 PM 38.0481 -122.3781 North 233 268 11,800 1,268 Climbing Oakland Center
Mon 04:11:58 PM 38.1150 -122.3753 North 241 277 13,100 1,082 Climbing Oakland Center
Mon 04:12:59 PM 38.1850 -122.3728 North 254 292 14,000 1,073 Climbing Oakland Center
Mon 04:14:01 PM 38.2694 -122.3653 North 255 293 15,300 1,122 Climbing Oakland Center
Mon 04:15:02 PM 38.3417 -122.3581 North 260 299 16,300 976 Climbing Oakland Center
Mon 04:16:04 PM 38.4131 -122.3517 North 258 297 17,300 1,024 Climbing Oakland Center
Mon 04:17:05 PM 38.4869 -122.3450 North 265 305 18,400 984 Climbing Oakland Center
Mon 04:18:06 PM 38.5611 -122.3394 North 268 308 19,300 878 Climbing Oakland Center
Mon 04:19:08 PM 38.6350 -122.3322 North 268 308 20,200 829 Climbing Oakland Center
Mon 04:20:09 PM 38.7211 -122.3314 360° North 272 313 21,000 787 Climbing Oakland Center
Mon 04:21:10 PM 38.7972 -122.3472 351° North 276 318 21,800 488 Climbing Oakland Center
Mon 04:22:12 PM 38.8758 -122.3589 353° North 282 325 22,000 98 Climbing Oakland Center
Mon 04:23:13 PM 38.9586 -122.3706 354° North 297 342 22,000  Level Oakland Center
Mon 04:24:14 PM 39.0439 -122.3836 353° North 304 350 22,000  Level Oakland Center
Mon 04:25:16 PM 39.1281 -122.3944 354° North 303 349 22,000  Level Oakland Center
Mon 04:26:17 PM 39.2133 -122.4075 353° North 306 352 22,000  Level Oakland Center
Mon 04:27:18 PM 39.2983 -122.4206 353° North 306 352 22,000  Level Oakland Center
Mon 04:28:20 PM 39.3825 -122.4342 353° North 303 349 22,000  Level Oakland Center
Mon 04:29:21 PM 39.4672 -122.4481 353° North 306 352 22,000  Level Oakland Center
Mon 04:30:22 PM 39.5586 -122.4597 354° North 308 354 22,000  Level Oakland Center
Mon 04:31:24 PM 39.6439 -122.4739 353° North 310 357 22,000  Level Oakland Center
Mon 04:32:25 PM 39.7300 -122.4864 354° North 311 358 22,000  Level Oakland Center
Mon 04:33:26 PM 39.8328 -122.5011 354° North 310 357 22,000  Level Oakland Center
Mon 04:34:28 PM 39.9172 -122.5150 353° North 307 353 22,000  Level Oakland Center
Mon 04:35:29 PM 40.0033 -122.5275 354° North 310 357 22,000  Level Oakland Center
Mon 04:36:31 PM 40.0892 -122.5417 353° North 308 354 22,000  Level Oakland Center
Mon 04:37:32 PM 40.1764 -122.5528 354° North 310 357 22,000  Level Oakland Center
Mon 04:38:33 PM 40.2633 -122.5642 354° North 310 357 22,000  Level Oakland Center
Mon 04:39:35 PM 40.3494 -122.5769 354° North 309 356 22,000  Level Oakland Center
Mon 04:40:36 PM 40.4364 -122.5894 354° North 311 358 22,000  Level Oakland Center
Mon 04:41:38 PM 40.5222 -122.6017 354° North 310 357 22,000  Level Oakland Center
Mon 04:42:39 PM 40.6086 -122.6136 354° North 312 359 22,000  Level Oakland Center
Mon 04:43:41 PM 40.6961 -122.6269 353° North 316 364 22,000  Level Oakland Center
Mon 04:44:42 PM 40.7828 -122.6392 354° North 313 360 22,000  Level Oakland Center
Mon 04:45:44 PM 40.8878 -122.6542 354° North 317 365 22,000  Level Oakland Center
Mon 04:46:45 PM 40.9747 -122.6669 354° North 315 362 22,000  Level Oakland Center
Mon 04:47:47 PM 41.0611 -122.6786 354° North 313 360 22,000  Level Oakland Center
Mon 04:48:48 PM 41.1475 -122.6914 354° North 312 359 22,000  Level Oakland Center
Mon 04:49:50 PM 41.2342 -122.7053 353° North 315 362 22,000  Level Oakland Center
Mon 04:50:51 PM 41.3208 -122.7169 354° North 314 361 22,000  Level Oakland Center
Mon 04:51:53 PM 41.4169 -122.7311 354° North 312 359 22,000  Level Oakland Center
Mon 04:52:54 PM 41.5014 -122.7431 354° North 310 357 22,000 -290 Level Oakland Center
Mon 04:53:57 PM 41.5894 -122.7536 355° North 315 362 21,400 -878 Descending Oakland Center
Mon 04:54:57 PM 41.6817 -122.7681 353° North 326 375 20,200 -1,426 Descending Oakland Center
Mon 04:55:59 PM 41.7767 -122.7828 353° North 337 388 18,500 -1,854 Descending Oakland Center
Mon 04:57:00 PM 41.8703 -122.7953 354° North 338 389 16,400 -2,146 Descending Oakland Center
Mon 04:58:02 PM 41.9558 -122.8083 354° North 321 369 14,100 -2,081 Descending Oakland Center
Mon 04:59:04 PM 42.0347 -122.8217 353° North 298 343 12,100 -2,049 Descending Oakland Center
Mon 05:00:05 PM 42.1272 -122.8342 354° North 283 326 9,900 -2,000 Descending Oakland Center
Mon 05:01:07 PM 42.1894 -122.8031 20° North 256 295 8,000 -2,098 Descending Oakland Center
Mon 05:02:08 PM 42.2419 -122.7797 18° North 238 274 5,600 -2,361 Descending Oakland Center

Login

Don't have an account? Register now (free) for customized features, flight alerts, and more!